Архив погоды на Мысе Челюскин

Метеограмма Мыс Челюскин Обсерватория Федорова
Суббота, 23 Июня
Время местн. Темп Ветер Видим Явления Облачность нижн/средн/верх Атм. давл. Влжн Точка росы ВНГО R Сост. почвы Tg s
Напр Скр Прв ур.ст ур.м изм
19:00 -1.3° В 6 - 500 м туман неба не видно 760 762 +0.4 99% -1.4° - 0 - - -
16:00 -1.1° В 6 - 500 м туман неба не видно 760 761 +0.4 99% -1.2° - - - - -
13:00 -1.4° В 6 - 500 м туман неба не видно 759 761 -0.2 100% -1.4° - - - - -
10:00 -1.8° В 6 - 500 м туман неба не видно 760 761 0 99% -1.9° - - - - -
07:00 -2.1° В 6 - 500 м туман неба не видно 760 761 +0.1 99% -2.2° - 0 Влажная (без луж) -1° -
04:00 -2° В 7 - 500 м туман неба не видно 760 761 -0.2 99% -2.1° - - - - -
01:00 -2.4° В 6 - 500 м туман неба не видно 760 761 -0.3 99% -2.5° - - - - -
Пятница, 22 Июня
Время местн. Темп Ветер Видим Явления Облачность нижн/средн/верх Атм. давл. Влжн Точка росы ВНГО R Сост. почвы Tg s
Напр Скр Прв ур.ст ур.м изм
22:00 -2° В 6 10 500 м туман неба не видно 760 761 +0.1 99% -2.1° - - - - -
19:00 -1.8° В 8 10 500 м туман неба не видно 760 761 -0.2 99% -1.9° - 0 - - -
16:00 -1.5° В 8 11 500 м туман неба не видно 760 761 0 100% -1.5° - - - - -
13:00 -1.3° В 7 - 500 м туман усиливается неба не видно 760 762 -0.3 99% -1.4° - - - - -
10:00 -0.8° В 7 - 20 км - переменная облачность 761 762 -0.5 99% -1° более 2.5 км - - - -
07:00 -1.5° В 6 - 4 км дымка {туман} переменная облачность 761 762 -0.4 99% -1.7° более 2.5 км 0 Влажная (без луж) - -
04:00 -2.3° В 7 - 500 м туман неба не видно 761 763 -0.4 100% -2.3° - - - - -
01:00 -1.8° В 6 - 0.5 км туман усиливается неба не видно 762 763 -0.3 100% -1.8° - - - - -
Четверг, 21 Июня
Время местн. Темп Ветер Видим Явления Облачность нижн/средн/верх Атм. давл. Влжн Точка росы ВНГО R Сост. почвы Tg s
Напр Скр Прв ур.ст ур.м изм
22:00 -1.8° В 7 - 0.5 км туман неба не видно 762 763 -0.3 99% -1.9° - - - - -
19:00 -1.8° В 7 - 500 м туман усиливается {морось} неба не видно 762 764 +0.1 99% -2° - 0.1 - - -
16:00 -1.3° В 7 - 10 км слабая морось с перерывами облачно 762 764 -0.2 96% -1.8° 600 м - - - -
13:00 -0.8° В 7 - 20 км - облачно 763 764 -0.5 94% -1.6° 600 м - - - -
10:00 -0.7° В 5 - 20 км - облачно 763 764 -0.2 95% -1.4° 600 м - - - -
07:00 -0.7° В 7 - 20 км - облачно 763 765 -0.2 95% -1.4° 600 м 0 Сырая (есть малые или большие лужи) - -
04:00 -0.6° В 6 - 20 км - облачно 763 765 0 97% -1° 600 м - - - -
01:00 -0.2° В 4 - 20 км - облачно 763 765 +0.2 99% -0.4° 600 м - - - -
Среда, 20 Июня
Время местн. Темп Ветер Видим Явления Облачность нижн/средн/верх Атм. давл. Влжн Точка росы ВНГО R Сост. почвы Tg s
Напр Скр Прв ур.ст ур.м изм
22:00 -0.1° В 3 - 20 км - облачно 763 765 +0.2 99% -0.2° 600 м - - - -
19:00 В 1 - 20 км - облачно 763 764 +0.8 99% -0.2° 600 м 0 - - -
16:00 +0.2° С-В 1 - 20 км - облачно 762 764 +0.7 95% -0.5° 600 м - - - -